Time;durP1;ratioP1;P1;durP2;ratioP2;P2;SDS_P1;SDS_P2;PMS_P1;PMS_P2;Temp;Humidity;BMP_temperature;BMP_pressure;BME280_temperature;BME280_humidity;BME280_pressure;Samples;Min_cycle;Max_cycle;Signal;HPM_P1;HPM_P2
2023/07/14 00:01:40;;;;;;;11.85;3.60;;;17.30;99.90;;;;;;5011595;28;20512;-69
2023/07/14 00:04:20;;;;;;;9.02;3.20;;;17.30;99.90;;;;;;4998308;28;20018;-69
2023/07/14 00:06:46;;;;;;;12.10;3.58;;;17.30;99.90;;;;;;5007543;28;20026;-70
2023/07/14 00:09:31;;;;;;;16.52;3.20;;;17.20;99.90;;;;;;5008089;28;20209;-69
2023/07/14 00:12:00;;;;;;;10.98;3.20;;;17.20;99.90;;;;;;4999685;28;20022;-70
2023/07/14 00:14:26;;;;;;;10.77;3.50;;;17.20;99.90;;;;;;5010396;28;20042;-68
2023/07/14 00:16:54;;;;;;;10.10;3.20;;;17.20;99.90;;;;;;5005214;28;20231;-70
2023/07/14 00:19:20;;;;;;;9.45;3.35;;;17.20;99.90;;;;;;5002591;28;20104;-68
2023/07/14 00:21:47;;;;;;;8.45;3.53;;;17.20;99.90;;;;;;5012139;28;20104;-69
2023/07/14 00:24:15;;;;;;;10.27;3.60;;;17.20;99.90;;;;;;4999454;28;20029;-70
2023/07/14 00:26:44;;;;;;;7.68;3.13;;;17.20;99.90;;;;;;5007228;28;20379;-70
2023/07/14 00:29:24;;;;;;;11.85;3.58;;;17.20;99.90;;;;;;5007636;28;20037;-70
2023/07/14 00:31:50;;;;;;;12.77;3.55;;;17.10;99.90;;;;;;4999088;28;20057;-69
2023/07/14 00:34:16;;;;;;;13.32;3.33;;;17.10;99.90;;;;;;5010799;28;20038;-69
2023/07/14 00:36:41;;;;;;;19.60;5.15;;;17.10;99.90;;;;;;5003571;28;20034;-69
2023/07/14 00:39:07;;;;;;;10.90;3.30;;;17.10;99.90;;;;;;5004053;28;20037;-69
2023/07/14 00:41:32;;;;;;;12.80;3.78;;;17.00;99.90;;;;;;5008523;28;20034;-70
2023/07/14 00:43:58;;;;;;;13.07;3.53;;;17.00;99.90;;;;;;5010070;28;20029;-69
2023/07/14 00:46:27;;;;;;;11.45;3.28;;;17.00;99.90;;;;;;5000959;28;20106;-69
2023/07/14 00:48:55;;;;;;;9.82;3.63;;;17.00;99.90;;;;;;5005669;28;20026;-70
2023/07/14 00:51:24;;;;;;;13.98;3.80;;;17.00;99.90;;;;;;5008676;28;20061;-69
2023/07/14 00:53:51;;;;;;;12.73;4.00;;;17.00;99.90;;;;;;4998661;28;20378;-69
2023/07/14 00:56:43;;;;;;;11.82;4.00;;;16.90;99.90;;;;;;5009699;28;20026;-70
2023/07/14 00:59:17;;;;;;;14.15;3.97;;;16.90;99.90;;;;;;5006701;28;20030;-70
2023/07/14 01:02:10;;;;;;;14.52;3.70;;;16.90;99.90;;;;;;4998919;28;20122;-70
2023/07/14 01:04:39;;;;;;;10.82;3.70;;;16.90;99.90;;;;;;4989783;28;20021;-71
2023/07/14 01:07:05;;;;;;;16.40;4.45;;;16.90;99.90;;;;;;5003766;28;20022;-69
2023/07/14 01:09:32;;;;;;;13.30;4.13;;;16.90;99.90;;;;;;5009684;28;20030;-71
2023/07/14 01:12:00;;;;;;;11.90;3.90;;;16.90;99.90;;;;;;4998582;28;20053;-69
2023/07/14 01:14:32;;;;;;;18.02;3.80;;;16.90;99.90;;;;;;5008719;28;20467;-70
2023/07/14 01:17:00;;;;;;;14.05;4.10;;;16.80;99.90;;;;;;5004893;28;20034;-70
2023/07/14 01:19:52;;;;;;;15.25;4.72;;;16.80;99.90;;;;;;5000328;28;20509;-70
2023/07/14 01:22:21;;;;;;;11.68;3.75;;;16.80;99.90;;;;;;4984931;28;20045;-70
2023/07/14 01:25:09;;;;;;;16.65;4.55;;;16.80;99.90;;;;;;5005683;28;20050;-69
2023/07/14 01:27:34;;;;;;;13.00;4.55;;;16.80;99.90;;;;;;5009597;28;20092;-69
2023/07/14 01:30:01;;;;;;;14.68;5.00;;;16.80;99.90;;;;;;4997945;28;20467;-69
2023/07/14 01:32:39;;;;;;;17.80;4.15;;;16.80;99.90;;;;;;5008354;28;20023;-69
2023/07/14 01:35:07;;;;;;;14.10;4.40;;;16.80;99.90;;;;;;5001053;28;20533;-69
2023/07/14 01:37:37;;;;;;;13.30;4.55;;;16.80;99.90;;;;;;4994258;28;20069;-69
2023/07/14 01:40:06;;;;;;;17.85;4.68;;;16.70;99.90;;;;;;4994663;28;20081;-69
2023/07/14 01:42:33;;;;;;;15.50;5.10;;;16.70;99.90;;;;;;4992889;28;20034;-70
2023/07/14 01:44:59;;;;;;;15.18;4.88;;;16.70;99.90;;;;;;4992978;28;20022;-69
2023/07/14 01:47:25;;;;;;;18.05;5.10;;;16.70;99.90;;;;;;4994508;28;20113;-69
2023/07/14 01:49:52;;;;;;;16.00;4.88;;;16.70;99.90;;;;;;4990869;28;20034;-69
2023/07/14 01:52:27;;;;;;;14.05;4.57;;;16.60;99.90;;;;;;4983480;28;20026;-69
2023/07/14 01:54:56;;;;;;;12.88;5.07;;;16.60;99.90;;;;;;4982719;28;20037;-70
2023/07/14 01:57:26;;;;;;;15.63;4.78;;;16.60;99.90;;;;;;4984059;28;20022;-69
2023/07/14 01:59:58;;;;;;;13.45;4.95;;;16.60;99.90;;;;;;4985001;28;20061;-70
2023/07/14 02:02:31;;;;;;;19.45;5.38;;;16.50;99.90;;;;;;4983614;28;20109;-67
2023/07/14 02:04:57;;;;;;;15.68;5.03;;;16.50;99.90;;;;;;4984750;28;20019;-71
2023/07/14 02:07:23;;;;;;;12.57;4.88;;;16.50;99.90;;;;;;4983520;28;20029;-69
2023/07/14 02:09:49;;;;;;;15.25;5.13;;;16.40;99.90;;;;;;4982885;28;20528;-69
2023/07/14 02:12:28;;;;;;;11.95;4.00;;;16.40;99.90;;;;;;4985390;28;20038;-70
2023/07/14 02:15:06;;;;;;;12.82;4.57;;;16.40;99.90;;;;;;4985287;28;20035;-70
2023/07/14 02:17:34;;;;;;;14.23;4.57;;;16.40;99.90;;;;;;4984567;28;20084;-70
2023/07/14 02:20:10;;;;;;;12.80;4.57;;;16.40;99.90;;;;;;4985419;28;20557;-71
2023/07/14 02:22:37;;;;;;;15.98;4.70;;;16.30;99.90;;;;;;4983618;28;20386;-72
2023/07/14 02:25:07;;;;;;;15.02;4.68;;;16.30;99.90;;;;;;4984410;28;20126;-70
2023/07/14 02:27:33;;;;;;;12.95;4.55;;;16.30;99.90;;;;;;4985652;28;20019;-69
2023/07/14 02:30:00;;;;;;;13.68;4.68;;;16.30;99.90;;;;;;4983470;28;20029;-69
2023/07/14 02:32:35;;;;;;;12.05;4.25;;;16.30;99.90;;;;;;4984260;28;20077;-69
2023/07/14 02:35:16;;;;;;;11.18;4.72;;;16.30;99.90;;;;;;4993853;28;20040;-71
2023/07/14 02:38:04;;;;;;;11.60;4.60;;;16.20;99.90;;;;;;4989218;28;20038;-68
2023/07/14 02:40:37;;;;;;;15.63;4.70;;;16.20;99.90;;;;;;4974201;28;20031;-69
2023/07/14 02:43:11;;;;;;;12.88;4.35;;;16.20;99.90;;;;;;4973992;28;20038;-69
2023/07/14 02:45:55;;;;;;;11.27;4.32;;;16.20;99.90;;;;;;4974319;28;20030;-69
2023/07/14 02:48:28;;;;;;;12.00;4.78;;;16.20;99.90;;;;;;4974398;28;20077;-68
2023/07/14 02:50:54;;;;;;;9.65;4.10;;;16.10;99.90;;;;;;4974192;28;20078;-69
2023/07/14 02:53:19;;;;;;;16.35;4.53;;;16.10;99.90;;;;;;4983962;28;20038;-69
2023/07/14 02:55:45;;;;;;;9.38;4.07;;;16.10;99.90;;;;;;4993300;28;20053;-70
2023/07/14 02:58:11;;;;;;;14.93;4.50;;;16.10;99.90;;;;;;4993461;28;20111;-70
2023/07/14 03:00:36;;;;;;;16.20;4.72;;;16.10;99.90;;;;;;4993544;28;20030;-70
2023/07/14 03:03:02;;;;;;;14.85;4.43;;;16.00;99.90;;;;;;5008553;28;20040;-68
2023/07/14 03:05:29;;;;;;;14.63;4.45;;;16.00;99.90;;;;;;4993513;28;20533;-68
2023/07/14 03:07:55;;;;;;;11.77;4.00;;;16.00;99.90;;;;;;4992606;28;20026;-69
2023/07/14 03:10:20;;;;;;;8.82;4.25;;;15.90;99.90;;;;;;4993200;28;20080;-68
2023/07/14 03:12:46;;;;;;;10.23;4.38;;;15.90;99.90;;;;;;4993103;28;20034;-69
2023/07/14 03:15:12;;;;;;;10.85;4.05;;;15.90;99.90;;;;;;4993120;28;20038;-69
2023/07/14 03:17:37;;;;;;;13.30;4.22;;;15.90;99.90;;;;;;4993332;28;20022;-67
2023/07/14 03:20:04;;;;;;;11.20;4.43;;;15.80;99.90;;;;;;4996111;28;20049;-69
2023/07/14 03:22:30;;;;;;;13.35;4.65;;;15.80;99.90;;;;;;4996786;28;20035;-68
2023/07/14 03:25:00;;;;;;;13.88;4.50;;;15.80;99.90;;;;;;4996960;28;20061;-68
2023/07/14 03:27:26;;;;;;;10.48;4.93;;;15.80;99.90;;;;;;4996987;28;20037;-69
2023/07/14 03:29:51;;;;;;;13.85;4.90;;;15.80;99.90;;;;;;4996986;28;20030;-68
2023/07/14 03:32:17;;;;;;;12.38;4.93;;;15.70;99.90;;;;;;4997322;28;20026;-69
2023/07/14 03:34:42;;;;;;;11.63;4.43;;;15.70;99.90;;;;;;4997231;28;20042;-69
2023/07/14 03:37:08;;;;;;;12.65;4.57;;;15.70;99.90;;;;;;4996601;28;20027;-68
2023/07/14 03:39:33;;;;;;;11.43;4.90;;;15.70;99.90;;;;;;4996955;28;20026;-69
2023/07/14 03:42:00;;;;;;;13.05;4.85;;;15.70;99.90;;;;;;4996591;28;20036;-69
2023/07/14 03:44:26;;;;;;;13.05;5.00;;;15.70;99.90;;;;;;4996260;28;20056;-69
2023/07/14 03:46:52;;;;;;;13.23;4.85;;;15.70;99.90;;;;;;4996820;28;20039;-69
2023/07/14 03:49:18;;;;;;;12.43;4.80;;;15.60;99.90;;;;;;4995921;28;20033;-68
2023/07/14 03:51:43;;;;;;;12.75;4.97;;;15.60;99.90;;;;;;4996348;28;20121;-69
2023/07/14 03:54:10;;;;;;;13.23;4.97;;;15.70;99.90;;;;;;4996726;28;20034;-69
2023/07/14 03:56:35;;;;;;;15.43;5.10;;;15.60;99.90;;;;;;4996358;28;20034;-69
2023/07/14 03:59:01;;;;;;;10.52;4.72;;;15.60;99.90;;;;;;4996404;28;20027;-68
2023/07/14 04:01:27;;;;;;;14.30;4.88;;;15.60;99.90;;;;;;4996504;28;20034;-70
2023/07/14 04:03:54;;;;;;;12.25;4.43;;;15.60;99.90;;;;;;4996825;28;20034;-70
2023/07/14 04:06:19;;;;;;;13.60;4.70;;;15.70;99.90;;;;;;4996550;28;20054;-68
2023/07/14 04:08:45;;;;;;;13.02;4.63;;;15.60;99.90;;;;;;4996945;28;20069;-69
2023/07/14 04:11:12;;;;;;;11.65;4.82;;;15.70;99.90;;;;;;4996421;28;20022;-70
2023/07/14 04:13:38;;;;;;;16.35;5.40;;;15.70;99.90;;;;;;4996359;28;20467;-68
2023/07/14 04:16:07;;;;;;;15.52;4.90;;;15.70;99.90;;;;;;4996493;28;20026;-68
2023/07/14 04:18:36;;;;;;;15.25;5.15;;;15.70;99.90;;;;;;4996124;28;20030;-68
2023/07/14 04:21:10;;;;;;;9.48;4.68;;;15.70;99.90;;;;;;4995069;28;20030;-68
2023/07/14 04:23:36;;;;;;;13.60;4.68;;;15.80;99.90;;;;;;4996339;28;20038;-68
2023/07/14 04:26:02;;;;;;;11.80;4.78;;;15.80;99.90;;;;;;4995846;28;20046;-69
2023/07/14 04:28:28;;;;;;;13.80;5.38;;;15.80;99.90;;;;;;4996546;28;20451;-68
2023/07/14 04:30:58;;;;;;;11.88;5.00;;;15.80;99.90;;;;;;4995998;28;20030;-68
2023/07/14 04:33:24;;;;;;;11.30;5.10;;;15.80;99.90;;;;;;4996023;28;20423;-68
2023/07/14 04:35:51;;;;;;;18.38;4.93;;;15.80;99.90;;;;;;4996560;28;20101;-70
2023/07/14 04:38:18;;;;;;;12.10;4.90;;;15.90;99.90;;;;;;4996526;28;20022;-69
2023/07/14 04:40:44;;;;;;;13.60;5.22;;;15.90;99.90;;;;;;4995914;28;20467;-69
2023/07/14 04:43:11;;;;;;;11.57;5.05;;;15.90;99.90;;;;;;4996054;28;20039;-69
2023/07/14 04:45:41;;;;;;;10.35;4.55;;;15.90;99.90;;;;;;4995901;28;20467;-69
2023/07/14 04:48:09;;;;;;;15.75;4.82;;;15.90;99.90;;;;;;4996191;28;20034;-69
2023/07/14 04:50:36;;;;;;;14.90;5.05;;;16.00;99.90;;;;;;4995821;28;20030;-68
2023/07/14 04:53:05;;;;;;;9.95;4.82;;;16.00;99.90;;;;;;4995906;28;20105;-68
2023/07/14 04:55:40;;;;;;;13.38;5.53;;;16.10;99.90;;;;;;4996055;28;20054;-69
2023/07/14 04:58:05;;;;;;;14.52;5.15;;;16.10;99.90;;;;;;4995355;28;20033;-70
2023/07/14 05:00:31;;;;;;;15.80;5.63;;;16.00;99.90;;;;;;4996631;28;20014;-69
2023/07/14 05:02:57;;;;;;;12.43;5.00;;;16.00;99.90;;;;;;4995783;28;20030;-69
2023/07/14 05:05:24;;;;;;;15.32;5.65;;;16.10;99.90;;;;;;4995940;28;20034;-69
2023/07/14 05:07:50;;;;;;;16.38;5.65;;;16.10;99.90;;;;;;4995696;28;20471;-69
2023/07/14 05:10:17;;;;;;;14.05;4.75;;;16.20;99.90;;;;;;4996037;28;20034;-69
2023/07/14 05:12:42;;;;;;;14.80;5.07;;;16.20;99.90;;;;;;4995583;28;20034;-69
2023/07/14 05:15:10;;;;;;;12.15;4.53;;;16.30;99.90;;;;;;4995482;28;20026;-69
2023/07/14 05:17:41;;;;;;;12.60;4.95;;;16.40;99.90;;;;;;4995705;28;20031;-68
2023/07/14 05:20:10;;;;;;;12.48;4.50;;;16.40;99.90;;;;;;4995679;28;20029;-69
2023/07/14 05:22:43;;;;;;;15.45;5.63;;;16.50;99.90;;;;;;4995416;28;20466;-69
2023/07/14 05:25:08;;;;;;;;;;;16.60;99.90;;;;;;4995776;28;20049;-69
2023/07/14 05:27:35;;;;;;;17.05;5.53;;;16.70;99.90;;;;;;4995062;28;19910;-70
2023/07/14 05:30:05;;;;;;;16.40;5.20;;;16.80;99.90;;;;;;4995437;28;20478;-69
2023/07/14 05:32:32;;;;;;;12.98;4.65;;;16.80;99.90;;;;;;4994704;28;20368;-70
2023/07/14 05:34:57;;;;;;;15.05;5.20;;;17.00;99.90;;;;;;4995216;28;20038;-70
2023/07/14 05:37:24;;;;;;;16.48;4.78;;;17.00;99.90;;;;;;4995215;28;20029;-69
2023/07/14 05:39:50;;;;;;;20.33;5.40;;;17.10;99.90;;;;;;4995118;28;20028;-69
2023/07/14 05:42:16;;;;;;;13.52;4.20;;;17.20;99.90;;;;;;4994672;28;20033;-69
2023/07/14 05:44:41;;;;;;;14.15;4.45;;;17.50;99.90;;;;;;4995093;28;20030;-69
2023/07/14 05:47:07;;;;;;;12.23;4.97;;;17.90;99.90;;;;;;4995279;28;20352;-68
2023/07/14 05:49:33;;;;;;;10.48;4.47;;;18.20;99.90;;;;;;4995032;28;20084;-69
2023/07/14 05:51:59;;;;;;;15.40;4.45;;;18.60;99.90;;;;;;4994948;28;20030;-68
2023/07/14 05:54:24;;;;;;;11.55;4.45;;;18.90;99.90;;;;;;4994158;28;20605;-69
2023/07/14 05:56:51;;;;;;;13.43;5.18;;;19.20;99.90;;;;;;4994814;28;20477;-68
2023/07/14 05:59:17;;;;;;;11.77;4.18;;;19.50;99.90;;;;;;4994895;28;20461;-69
2023/07/14 06:01:45;;;;;;;11.27;4.00;;;20.10;99.90;;;;;;4994835;28;20038;-69
2023/07/14 06:04:10;;;;;;;13.85;4.45;;;20.50;99.90;;;;;;4994550;28;20477;-68
2023/07/14 06:06:36;;;;;;;13.15;4.28;;;20.90;99.90;;;;;;4994748;28;20030;-69
2023/07/14 06:09:01;;;;;;;12.90;3.88;;;21.60;99.90;;;;;;4994735;28;20030;-68
2023/07/14 06:11:27;;;;;;;12.07;4.75;;;22.40;99.90;;;;;;4994608;28;20022;-68
2023/07/14 06:13:53;;;;;;;11.32;4.32;;;22.80;99.90;;;;;;4994106;28;20050;-68
2023/07/14 06:16:22;;;;;;;11.77;3.95;;;23.20;99.90;;;;;;4994207;28;20031;-68
2023/07/14 06:18:48;;;;;;;12.57;4.28;;;23.50;99.90;;;;;;4994427;28;20026;-69
2023/07/14 06:21:13;;;;;;;11.55;4.15;;;23.30;99.90;;;;;;4994368;28;20476;-69
2023/07/14 06:23:39;;;;;;;13.10;4.68;;;23.00;99.90;;;;;;4994373;28;20034;-69
2023/07/14 06:26:04;;;;;;;12.30;4.55;;;22.80;99.90;;;;;;4994498;28;20051;-69
2023/07/14 06:28:30;;;;;;;11.52;4.28;;;22.80;99.90;;;;;;4994194;28;20030;-69
2023/07/14 06:30:57;;;;;;;14.50;4.55;;;23.10;99.90;;;;;;4994047;28;20033;-69
2023/07/14 06:33:23;;;;;;;14.07;4.70;;;23.20;99.90;;;;;;4994363;28;20064;-68
2023/07/14 06:35:49;;;;;;;17.38;4.90;;;23.30;99.90;;;;;;4994532;28;20034;-69
2023/07/14 06:38:14;;;;;;;13.48;5.20;;;23.80;99.90;;;;;;4994343;28;20022;-69
2023/07/14 06:40:41;;;;;;;14.02;4.25;;;24.40;99.90;;;;;;4993989;28;20459;-69
2023/07/14 06:43:09;;;;;;;13.10;4.55;;;24.80;99.80;;;;;;4994227;28;20026;-69
2023/07/14 06:45:35;;;;;;;14.13;4.90;;;24.80;99.80;;;;;;4994347;28;20073;-69
2023/07/14 06:48:01;;;;;;;15.60;4.75;;;25.10;99.80;;;;;;4993809;28;20026;-69
2023/07/14 06:50:27;;;;;;;14.18;4.28;;;25.60;99.10;;;;;;4993981;28;20026;-70
2023/07/14 06:52:53;;;;;;;14.07;4.70;;;26.40;98.30;;;;;;4991919;28;20105;-70
2023/07/14 06:55:19;;;;;;;13.55;4.65;;;26.70;97.00;;;;;;4993531;28;20030;-69
2023/07/14 06:57:44;;;;;;;13.98;4.78;;;26.90;97.10;;;;;;4993842;28;20108;-69
2023/07/14 07:00:12;;;;;;;14.85;4.47;;;27.00;96.50;;;;;;4993713;28;20348;-70
2023/07/14 07:02:39;;;;;;;13.52;4.82;;;26.40;97.00;;;;;;4994093;28;20031;-69
2023/07/14 07:05:06;;;;;;;12.27;5.13;;;25.60;97.90;;;;;;4993763;28;20026;-69
2023/07/14 07:07:32;;;;;;;16.50;5.78;;;24.70;99.20;;;;;;4993675;28;20452;-68
2023/07/14 07:09:58;;;;;;;14.18;5.53;;;23.80;99.90;;;;;;4993798;28;20432;-70
2023/07/14 07:12:23;;;;;;;14.95;6.10;;;23.10;99.90;;;;;;4993596;28;20050;-70
2023/07/14 07:14:50;;;;;;;13.23;6.15;;;22.70;99.90;;;;;;4992131;28;20038;-70
2023/07/14 07:17:16;;;;;;;14.10;6.15;;;22.40;99.90;;;;;;4993466;28;20065;-70
2023/07/14 07:19:41;;;;;;;17.08;7.47;;;22.50;99.90;;;;;;4993729;28;20062;-69
2023/07/14 07:22:07;;;;;;;16.52;6.50;;;22.70;99.90;;;;;;4993770;28;20033;-70
2023/07/14 07:24:33;;;;;;;20.63;6.85;;;23.10;99.90;;;;;;4993381;28;20097;-69
2023/07/14 07:27:00;;;;;;;13.90;6.07;;;23.40;99.90;;;;;;4994118;28;20116;-69
2023/07/14 07:29:26;;;;;;;16.27;5.90;;;23.40;99.90;;;;;;4993667;28;20455;-69
2023/07/14 07:31:51;;;;;;;18.50;6.20;;;23.00;99.90;;;;;;4993877;28;20026;-70
2023/07/14 07:34:17;;;;;;;18.77;5.85;;;22.70;99.90;;;;;;4993562;28;20034;-70
2023/07/14 07:36:42;;;;;;;13.38;5.72;;;22.40;99.90;;;;;;4993820;28;20378;-69
2023/07/14 07:39:08;;;;;;;11.98;4.90;;;22.30;99.90;;;;;;4993598;28;20368;-69
2023/07/14 07:41:33;;;;;;;20.52;5.80;;;22.20;99.90;;;;;;4993897;28;20031;-70
2023/07/14 07:44:01;;;;;;;18.40;6.60;;;22.20;99.90;;;;;;4993414;28;20022;-69
2023/07/14 07:46:27;;;;;;;15.18;6.50;;;22.10;99.90;;;;;;4993201;28;20033;-68
2023/07/14 07:48:53;;;;;;;18.10;6.32;;;22.30;99.90;;;;;;4993567;28;20081;-68
2023/07/14 07:51:19;;;;;;;17.52;7.10;;;22.50;99.90;;;;;;4993174;28;20030;-69
2023/07/14 07:53:47;;;;;;;14.68;6.15;;;22.90;99.90;;;;;;4992595;28;20466;-68
2023/07/14 07:56:12;;;;;;;18.13;6.47;;;23.30;99.90;;;;;;4993455;28;20035;-69
2023/07/14 07:58:39;;;;;;;17.75;6.20;;;23.40;99.90;;;;;;4993529;28;20142;-68
2023/07/14 08:01:06;;;;;;;16.40;6.35;;;23.30;99.90;;;;;;4993487;28;20410;-69
2023/07/14 08:03:33;;;;;;;16.42;6.65;;;23.10;99.90;;;;;;4992872;28;20109;-69
2023/07/14 08:06:04;;;;;;;13.60;5.88;;;23.10;99.90;;;;;;4995623;28;20117;-69
2023/07/14 08:08:31;;;;;;;15.32;5.30;;;23.30;99.90;;;;;;4997111;28;20027;-69
2023/07/14 08:10:57;;;;;;;17.02;6.00;;;23.30;99.90;;;;;;4997051;28;20081;-68
2023/07/14 08:13:25;;;;;;;12.55;5.15;;;23.20;99.90;;;;;;4996479;28;20041;-69
2023/07/14 08:15:53;;;;;;;17.23;5.97;;;23.20;99.90;;;;;;4996399;28;20035;-69
2023/07/14 08:18:21;;;;;;;19.45;5.07;;;23.20;99.90;;;;;;4995446;28;20034;-69
2023/07/14 08:20:49;;;;;;;16.40;4.68;;;23.20;99.90;;;;;;4995097;28;20026;-69
2023/07/14 08:23:15;;;;;;;14.10;5.40;;;23.10;99.90;;;;;;4996595;28;20042;-68
2023/07/14 08:25:41;;;;;;;20.88;6.82;;;23.00;99.90;;;;;;4996510;28;20050;-69
2023/07/14 08:28:06;;;;;;;14.82;6.20;;;22.80;99.90;;;;;;4996431;28;20038;-68
2023/07/14 08:30:32;;;;;;;18.48;6.32;;;22.70;99.90;;;;;;4996489;28;20051;-68
2023/07/14 08:32:58;;;;;;;14.95;6.68;;;22.60;99.90;;;;;;4995938;28;20046;-68
2023/07/14 08:35:24;;;;;;;17.65;7.50;;;22.50;99.90;;;;;;4996493;28;20473;-69
2023/07/14 08:37:50;;;;;;;13.98;6.72;;;22.20;99.90;;;;;;4996517;28;20034;-69
2023/07/14 08:40:27;;;;;;;15.45;6.97;;;22.10;99.90;;;;;;4995702;28;20030;-69
2023/07/14 08:43:16;;;;;;;21.65;6.50;;;22.10;99.90;;;;;;4996412;28;20034;-68
2023/07/14 08:45:59;;;;;;;17.77;6.03;;;22.00;99.90;;;;;;4996227;28;20121;-69
2023/07/14 08:48:28;;;;;;;15.93;6.63;;;22.20;99.90;;;;;;4996630;28;20057;-69
2023/07/14 08:50:57;;;;;;;19.70;6.50;;;22.50;99.90;;;;;;4996074;28;20117;-69
2023/07/14 08:53:26;;;;;;;16.67;5.68;;;22.90;99.90;;;;;;4995693;28;20045;-69
2023/07/14 08:56:04;;;;;;;11.80;5.32;;;24.10;99.90;;;;;;4995971;28;20145;-69
2023/07/14 08:58:35;;;;;;;16.42;5.28;;;25.60;99.90;;;;;;4996263;28;20038;-69
2023/07/14 09:01:09;;;;;;;14.63;5.05;;;26.60;98.50;;;;;;4995670;28;20467;-69
2023/07/14 09:03:44;;;;;;;8.30;3.40;;;27.00;97.60;;;;;;4995830;28;20521;-69
2023/07/14 09:06:25;;;;;;;16.10;4.70;;;27.40;96.40;;;;;;4995502;28;20030;-68
2023/07/14 09:08:53;;;;;;;10.68;4.22;;;27.20;96.50;;;;;;4995688;28;20027;-70
2023/07/14 09:11:21;;;;;;;12.32;4.95;;;27.40;95.50;;;;;;4995274;28;20117;-68
2023/07/14 09:13:54;;;;;;;10.05;3.88;;;27.40;95.10;;;;;;4995621;28;20035;-68
2023/07/14 09:16:23;;;;;;;11.05;3.55;;;27.10;95.00;;;;;;4994745;28;20035;-69
2023/07/14 09:19:16;;;;;;;11.57;4.18;;;26.60;95.50;;;;;;4995232;28;20534;-69
2023/07/14 09:22:00;;;;;;;9.25;4.10;;;26.20;96.30;;;;;;4994735;28;20067;-68
2023/07/14 09:24:44;;;;;;;16.95;5.15;;;25.80;96.60;;;;;;4995414;28;20062;-68
2023/07/14 09:27:18;;;;;;;9.60;3.67;;;25.40;97.30;;;;;;4993577;28;20040;-68
2023/07/14 09:29:44;;;;;;;12.77;4.15;;;25.20;97.60;;;;;;4994853;28;20084;-68
2023/07/14 09:32:34;;;;;;;11.55;3.85;;;24.90;98.10;;;;;;4995291;28;20031;-69
2023/07/14 09:35:22;;;;;;;15.73;4.63;;;24.80;98.40;;;;;;4995520;28;20030;-68
2023/07/14 09:37:55;;;;;;;16.65;5.28;;;24.70;99.00;;;;;;4995128;28;20026;-69
2023/07/14 09:40:25;;;;;;;14.45;4.75;;;24.90;98.70;;;;;;4995035;28;20026;-69
2023/07/14 09:42:54;;;;;;;11.90;4.13;;;25.40;98.30;;;;;;4995161;28;20042;-69
2023/07/14 09:45:31;;;;;;;13.48;4.32;;;26.20;97.00;;;;;;4994950;28;20026;-69
2023/07/14 09:48:19;;;;;;;13.38;4.28;;;27.80;96.00;;;;;;4994888;28;20117;-68
2023/07/14 09:51:14;;;;;;;7.47;3.03;;;29.20;93.50;;;;;;4995020;28;20117;-68
2023/07/14 09:53:57;;;;;;;9.45;4.00;;;29.70;92.30;;;;;;4995121;28;20108;-69
2023/07/14 09:56:27;;;;;;;10.65;3.72;;;29.70;92.00;;;;;;4995039;28;20100;-68
2023/07/14 09:58:58;;;;;;;10.57;3.03;;;29.30;91.90;;;;;;4994916;28;20034;-69
2023/07/14 10:01:23;;;;;;;9.90;3.45;;;28.80;92.10;;;;;;4994987;28;20031;-68
2023/07/14 10:03:54;;;;;;;11.10;3.50;;;28.70;92.10;;;;;;4994699;28;20081;-68
2023/07/14 10:06:23;;;;;;;8.50;2.50;;;29.50;92.00;;;;;;4995160;28;20114;-69
2023/07/14 10:09:09;;;;;;;6.78;2.90;;;30.30;87.70;;;;;;4994517;28;20046;-69
2023/07/14 10:11:45;;;;;;;8.57;2.78;;;30.60;86.70;;;;;;4994655;28;20052;-68
2023/07/14 10:14:27;;;;;;;4.15;2.40;;;30.60;86.30;;;;;;4994707;28;20052;-69
2023/07/14 10:16:58;;;;;;;10.02;3.05;;;30.50;86.50;;;;;;4994538;28;20027;-69
2023/07/14 10:19:41;;;;;;;7.80;2.77;;;30.60;84.70;;;;;;4994789;28;20065;-69
2023/07/14 10:22:09;;;;;;;8.65;2.80;;;30.50;84.30;;;;;;4994502;28;20272;-69
2023/07/14 10:24:37;;;;;;;5.72;2.42;;;30.50;84.50;;;;;;4994077;28;20130;-69
2023/07/14 10:27:18;;;;;;;5.25;2.38;;;30.70;83.40;;;;;;4994251;28;20030;-69
2023/07/14 10:29:47;;;;;;;6.70;2.63;;;31.00;83.40;;;;;;4992792;28;20030;-69
2023/07/14 10:32:22;;;;;;;6.88;3.00;;;31.50;82.00;;;;;;4994223;28;20229;-68
2023/07/14 10:34:55;;;;;;;6.32;2.63;;;31.70;81.00;;;;;;4993532;28;20038;-68
2023/07/14 10:37:24;;;;;;;5.97;2.70;;;31.60;81.20;;;;;;4993240;28;20019;-68
2023/07/14 10:40:14;;;;;;;4.88;2.13;;;31.30;81.30;;;;;;4993880;28;20035;-69
2023/07/14 10:43:04;;;;;;;5.75;2.58;;;30.90;80.80;;;;;;4994177;28;20034;-69
2023/07/14 10:45:34;;;;;;;9.75;3.30;;;30.60;81.60;;;;;;4994350;28;20026;-69
2023/07/14 10:48:06;;;;;;;7.47;2.60;;;30.50;82.40;;;;;;4993967;28;20030;-68
2023/07/14 10:50:57;;;;;;;7.20;2.25;;;30.30;81.40;;;;;;4993804;28;20034;-70
2023/07/14 10:53:38;;;;;;;5.63;2.38;;;29.80;82.00;;;;;;4993605;28;20467;-71
2023/07/14 10:56:11;;;;;;;7.80;3.30;;;29.50;83.40;;;;;;4993749;28;20046;-69
2023/07/14 10:58:52;;;;;;;7.90;3.17;;;29.60;84.50;;;;;;4993781;28;20035;-68
2023/07/14 11:01:39;;;;;;;6.07;2.30;;;29.70;82.90;;;;;;4994291;28;20022;-69
2023/07/14 11:04:32;;;;;;;6.07;2.40;;;29.80;82.20;;;;;;4994027;28;20031;-68
2023/07/14 11:06:58;;;;;;;8.60;2.78;;;29.50;82.30;;;;;;4993241;28;20026;-68
2023/07/14 11:09:24;;;;;;;4.78;2.50;;;29.30;83.50;;;;;;4993663;28;20355;-68
2023/07/14 11:12:25;;;;;;;5.68;2.50;;;29.30;82.60;;;;;;4993709;28;20027;-68
2023/07/14 11:14:55;;;;;;;8.93;3.10;;;29.20;82.70;;;;;;4989824;28;20564;-69
2023/07/14 11:17:51;;;;;;;9.25;2.90;;;29.00;83.70;;;;;;4993388;28;20543;-68
2023/07/14 11:20:39;;;;;;;7.15;2.58;;;28.70;84.50;;;;;;4993997;28;20038;-68
2023/07/14 11:23:33;;;;;;;7.13;2.90;;;28.40;85.20;;;;;;4994233;28;20069;-68
2023/07/14 11:26:04;;;;;;;6.25;2.92;;;28.10;86.00;;;;;;4993534;28;20050;-68
2023/07/14 11:28:51;;;;;;;14.15;3.70;;;28.00;86.00;;;;;;4992782;28;20081;-69
2023/07/14 11:31:32;;;;;;;8.23;2.97;;;27.80;86.80;;;;;;4993582;28;20529;-70
2023/07/14 11:34:11;;;;;;;15.73;3.30;;;27.60;88.20;;;;;;4993354;28;20042;-69
2023/07/14 11:37:07;;;;;;;10.90;5.25;;;27.70;87.90;;;;;;4993580;28;20488;-69
2023/07/14 11:39:59;;;;;;;14.20;6.82;;;27.90;88.00;;;;;;4993713;28;20090;-69
2023/07/14 11:42:35;;;;;;;9.70;5.28;;;28.00;87.90;;;;;;4996829;28;20050;-70
2023/07/14 11:45:05;;;;;;;12.38;4.80;;;28.10;88.10;;;;;;4997279;28;20109;-69
2023/07/14 11:47:35;;;;;;;21.85;14.85;;;28.10;87.60;;;;;;4997435;28;20018;-69
2023/07/14 11:50:08;;;;;;;332.98;297.75;;;28.10;88.40;;;;;;4997577;28;20116;-69
2023/07/14 11:52:38;;;;;;;88.75;75.68;;;28.20;88.50;;;;;;4997242;28;20049;-68
2023/07/14 11:55:27;;;;;;;23.50;12.68;;;28.20;87.70;;;;;;4997102;28;20433;-69
2023/07/14 11:58:24;;;;;;;27.75;19.40;;;28.20;88.00;;;;;;4997142;28;20106;-69
2023/07/14 12:01:13;;;;;;;36.95;29.52;;;28.10;88.40;;;;;;4996826;28;20455;-69
2023/07/14 12:03:41;;;;;;;13.20;5.57;;;28.00;89.10;;;;;;4996746;28;20058;-70
2023/07/14 12:06:22;;;;;;;9.52;3.90;;;27.80;88.90;;;;;;4996750;28;20447;-69
2023/07/14 12:09:13;;;;;;;7.00;3.50;;;27.60;88.50;;;;;;4997069;28;20040;-69
2023/07/14 12:11:39;;;;;;;6.97;3.40;;;27.20;88.20;;;;;;4996995;28;20112;-68
2023/07/14 12:14:45;;;;;;;11.20;4.25;;;26.70;88.40;;;;;;4996791;28;20437;-69
2023/07/14 12:17:43;;;;;;;12.13;5.32;;;26.60;89.10;;;;;;4974882;28;20534;-68
2023/07/14 12:20:12;;;;;;;30.40;20.15;;;26.70;89.10;;;;;;4974677;28;20030;-69
2023/07/14 12:22:39;;;;;;;98.80;47.00;;;27.00;89.00;;;;;;4990307;28;20041;-70
2023/07/14 12:25:12;;;;;;;43.85;30.08;;;27.30;89.20;;;;;;4996104;28;20077;-70
2023/07/14 12:27:44;;;;;;;66.63;52.72;;;27.30;89.00;;;;;;4996433;28;20485;-70
2023/07/14 12:30:27;;;;;;;41.55;31.13;;;27.60;88.80;;;;;;4995047;28;20030;-70
2023/07/14 12:33:04;;;;;;;38.92;31.02;;;27.80;87.70;;;;;;4995904;28;20439;-70
2023/07/14 12:35:32;;;;;;;37.45;23.38;;;27.80;87.80;;;;;;4996453;28;20038;-69
2023/07/14 12:38:13;;;;;;;18.20;8.65;;;27.90;87.30;;;;;;4996251;28;20114;-69
2023/07/14 12:40:39;;;;;;;;;;;28.10;86.90;;;;;;4996308;28;20193;-70
2023/07/14 12:43:09;;;;;;;10.43;3.30;;;28.10;87.30;;;;;;4996232;28;20000;-69
2023/07/14 12:45:35;;;;;;;11.23;3.45;;;28.20;87.60;;;;;;4996380;28;20036;-69
2023/07/14 12:48:02;;;;;;;6.50;3.53;;;28.50;86.20;;;;;;4995744;28;20109;-70
2023/07/14 12:50:29;;;;;;;9.63;3.13;;;28.60;85.80;;;;;;4996118;28;20061;-70
2023/07/14 12:52:56;;;;;;;8.10;2.80;;;28.80;85.00;;;;;;4994961;28;20038;-69
2023/07/14 12:55:29;;;;;;;7.78;3.00;;;29.00;85.30;;;;;;4976906;28;20045;-70
2023/07/14 12:57:54;;;;;;;8.68;3.53;;;29.60;84.70;;;;;;4976626;28;20124;-68